Time;durP1;ratioP1;P1;durP2;ratioP2;P2;SDS_P1;SDS_P2;PMS_P1;PMS_P2;Temp;Humidity;BMP_temperature;BMP_pressure;BME280_temperature;BME280_humidity;BME280_pressure;Samples;Min_cycle;Max_cycle;Signal;HPM_P1;HPM_P2
2023/10/31 00:02:19;;;;;;;21.52;14.93;;;14.10;88.10;;;;;;9159687;19;20014;-75
2023/10/31 00:05:27;;;;;;;21.10;14.35;;;14.10;88.40;;;;;;9161901;19;20018;-74
2023/10/31 00:08:35;;;;;;;25.80;14.95;;;14.10;88.20;;;;;;9160128;19;20025;-76
2023/10/31 00:11:40;;;;;;;25.08;13.90;;;14.10;88.20;;;;;;9163388;19;20027;-75
2023/10/31 00:14:48;;;;;;;24.73;15.23;;;14.10;88.30;;;;;;9163597;19;20022;-75
2023/10/31 00:17:53;;;;;;;22.73;15.07;;;14.10;88.20;;;;;;9163124;19;20038;-75
2023/10/31 00:21:05;;;;;;;22.92;14.55;;;14.10;88.30;;;;;;9161090;19;20017;-75
2023/10/31 00:24:11;;;;;;;20.67;14.02;;;14.10;88.30;;;;;;9161729;19;20026;-74
2023/10/31 00:27:18;;;;;;;23.10;15.13;;;13.60;88.00;;;;;;9162637;19;20602;-75
2023/10/31 00:30:24;;;;;;;22.20;15.13;;;14.10;88.30;;;;;;9159206;19;20018;-76
2023/10/31 00:33:32;;;;;;;26.75;16.42;;;14.10;88.30;;;;;;9163478;19;20102;-75
2023/10/31 00:36:40;;;;;;;23.67;15.00;;;14.10;88.30;;;;;;9163322;19;20381;-75
2023/10/31 00:39:48;;;;;;;25.50;14.88;;;14.20;88.40;;;;;;9159939;19;20025;-75
2023/10/31 00:42:55;;;;;;;24.33;15.00;;;14.10;88.40;;;;;;9163183;19;20014;-74
2023/10/31 00:46:06;;;;;;;22.00;15.35;;;14.10;88.40;;;;;;9160499;19;20025;-75
2023/10/31 00:49:11;;;;;;;27.52;15.82;;;14.10;88.40;;;;;;9159540;19;20325;-75
2023/10/31 00:52:21;;;;;;;22.15;15.13;;;14.10;88.40;;;;;;9157819;19;20068;-74
2023/10/31 00:55:28;;;;;;;23.92;14.60;;;14.10;88.50;;;;;;9161624;19;20026;-74
2023/10/31 00:58:36;;;;;;;19.27;13.20;;;14.10;88.50;;;;;;9161973;19;20010;-74
2023/10/31 01:01:45;;;;;;;20.27;13.45;;;14.10;88.40;;;;;;9159906;19;20430;-75
2023/10/31 01:04:53;;;;;;;20.08;11.68;;;14.10;88.50;;;;;;9161639;19;20093;-75
2023/10/31 01:08:01;;;;;;;21.42;11.75;;;14.10;88.40;;;;;;9158524;19;20026;-75
2023/10/31 01:11:09;;;;;;;16.67;10.88;;;14.10;88.50;;;;;;9160518;19;20074;-74
2023/10/31 01:14:15;;;;;;;15.15;10.48;;;14.10;88.40;;;;;;9162079;19;20030;-74
2023/10/31 01:17:23;;;;;;;17.10;10.48;;;14.10;88.50;;;;;;9161333;19;20488;-74
2023/10/31 01:20:28;;;;;;;15.63;10.45;;;14.10;88.50;;;;;;9163917;19;20022;-75
2023/10/31 01:23:38;;;;;;;15.00;8.90;;;14.10;88.50;;;;;;9171241;19;20015;-74
2023/10/31 01:26:44;;;;;;;9.15;5.35;;;14.10;88.40;;;;;;9167180;19;20022;-74
2023/10/31 01:29:51;;;;;;;2.83;2.10;;;14.00;88.30;;;;;;9164724;19;20015;-74
2023/10/31 01:32:57;;;;;;;0.93;0.90;;;14.00;88.20;;;;;;9171213;19;20022;-74
2023/10/31 01:36:05;;;;;;;0.82;0.68;;;13.90;88.10;;;;;;9169510;19;20010;-74
2023/10/31 01:39:13;;;;;;;0.95;0.50;;;13.80;88.00;;;;;;9169527;19;20019;-74
2023/10/31 01:42:21;;;;;;;0.73;0.52;;;13.70;88.70;;;;;;9170930;19;20019;-73
2023/10/31 01:45:26;;;;;;;0.47;0.40;;;13.60;87.90;;;;;;9168951;19;20086;-74
2023/10/31 01:48:35;;;;;;;1.40;0.60;;;13.50;88.20;;;;;;9165583;19;20608;-73
2023/10/31 01:51:40;;;;;;;1.20;0.57;;;13.60;89.80;;;;;;9169175;19;20533;-73
2023/10/31 01:54:51;;;;;;;1.35;0.50;;;13.50;90.80;;;;;;9168286;19;20015;-73
2023/10/31 01:57:56;;;;;;;2.75;0.68;;;13.30;88.00;;;;;;9170502;19;20101;-74
2023/10/31 02:01:08;;;;;;;3.70;0.60;;;13.20;87.70;;;;;;9167881;19;20021;-76
2023/10/31 02:04:13;;;;;;;3.00;0.70;;;13.00;87.70;;;;;;9172396;19;20022;-74
2023/10/31 02:07:21;;;;;;;3.90;0.93;;;12.90;87.60;;;;;;9169331;19;20114;-74
2023/10/31 02:10:29;;;;;;;4.88;0.70;;;12.80;87.80;;;;;;9168994;19;20022;-74
2023/10/31 02:13:37;;;;;;;3.42;0.50;;;12.80;89.20;;;;;;9168742;19;20011;-74
2023/10/31 02:16:43;;;;;;;2.30;0.50;;;12.70;88.60;;;;;;9166430;19;20018;-75
2023/10/31 02:19:51;;;;;;;2.20;0.40;;;12.60;88.80;;;;;;9166186;19;20090;-74
2023/10/31 02:22:59;;;;;;;1.10;0.40;;;12.50;87.70;;;;;;9167935;19;20456;-73
2023/10/31 02:26:07;;;;;;;2.13;0.57;;;12.50;87.60;;;;;;9168224;19;20351;-72
2023/10/31 02:29:12;;;;;;;5.97;0.95;;;12.40;87.60;;;;;;9164961;19;20467;-73
2023/10/31 02:32:20;;;;;;;2.30;0.70;;;12.40;88.30;;;;;;9167047;19;20014;-73
2023/10/31 02:35:25;;;;;;;6.28;0.85;;;12.40;89.50;;;;;;9165726;19;20107;-73
2023/10/31 02:38:35;;;;;;;2.67;0.82;;;12.30;87.70;;;;;;9167445;19;20014;-73
2023/10/31 02:41:40;;;;;;;7.53;1.27;;;12.10;87.70;;;;;;9167067;19;20014;-73
2023/10/31 02:44:48;;;;;;;3.72;1.02;;;12.10;87.70;;;;;;9167475;19;20026;-73
2023/10/31 02:47:54;;;;;;;4.40;0.93;;;12.10;87.70;;;;;;9166408;19;20037;-73
2023/10/31 02:51:02;;;;;;;3.72;0.85;;;12.00;88.40;;;;;;9167478;19;20018;-73
2023/10/31 02:54:10;;;;;;;6.38;1.20;;;12.00;88.10;;;;;;9166433;19;20051;-73
2023/10/31 02:57:21;;;;;;;5.03;1.20;;;11.90;87.90;;;;;;9165669;19;20018;-73
2023/10/31 03:00:27;;;;;;;3.92;0.80;;;11.90;88.00;;;;;;9164413;19;20027;-73
2023/10/31 03:03:34;;;;;;;5.72;1.20;;;11.90;88.10;;;;;;9163880;19;20018;-74
2023/10/31 03:06:40;;;;;;;5.28;2.28;;;11.90;88.80;;;;;;9166741;19;20830;-74
2023/10/31 03:09:50;;;;;;;4.28;1.40;;;12.00;89.50;;;;;;9163103;19;20025;-73
2023/10/31 03:12:56;;;;;;;3.30;1.25;;;11.80;88.00;;;;;;9166479;19;20325;-73
2023/10/31 03:16:04;;;;;;;8.60;1.42;;;11.80;88.10;;;;;;9166832;19;20111;-72
2023/10/31 03:19:10;;;;;;;9.20;1.92;;;11.50;88.00;;;;;;9165886;19;20059;-73
2023/10/31 03:22:18;;;;;;;6.55;1.55;;;11.80;88.20;;;;;;9166027;19;20018;-73
2023/10/31 03:25:26;;;;;;;7.10;1.33;;;11.80;88.20;;;;;;9160390;19;20025;-72
2023/10/31 03:28:39;;;;;;;8.95;1.38;;;11.80;88.40;;;;;;9162660;19;20014;-73
2023/10/31 03:31:45;;;;;;;8.07;1.95;;;11.80;88.40;;;;;;9160938;19;20025;-73
2023/10/31 03:34:52;;;;;;;6.50;1.55;;;11.80;88.50;;;;;;9164093;19;20007;-73
2023/10/31 03:37:58;;;;;;;7.85;2.20;;;11.70;88.40;;;;;;9163466;19;20143;-73
2023/10/31 03:41:08;;;;;;;9.00;2.60;;;11.80;88.60;;;;;;9163111;19;20022;-73
2023/10/31 03:44:14;;;;;;;8.30;3.13;;;11.80;89.00;;;;;;9161951;19;20014;-73
2023/10/31 03:47:22;;;;;;;10.50;3.92;;;11.80;90.70;;;;;;9164101;19;20014;-73
2023/10/31 03:50:27;;;;;;;9.05;3.67;;;11.80;89.60;;;;;;9161330;19;20041;-73
2023/10/31 03:53:38;;;;;;;13.30;4.25;;;11.80;89.50;;;;;;9161331;19;20010;-73
2023/10/31 03:56:47;;;;;;;8.82;4.45;;;11.70;89.80;;;;;;9163375;19;20022;-73
2023/10/31 03:59:56;;;;;;;10.20;4.43;;;11.80;90.60;;;;;;9164001;19;20014;-73
2023/10/31 04:03:02;;;;;;;9.30;4.55;;;11.80;90.10;;;;;;9162600;19;20479;-73
2023/10/31 04:06:10;;;;;;;8.95;5.15;;;11.80;90.00;;;;;;9163660;19;20472;-73
2023/10/31 04:09:15;;;;;;;8.30;4.90;;;11.70;89.50;;;;;;9160926;19;20601;-72
2023/10/31 04:12:25;;;;;;;8.18;4.90;;;11.70;89.60;;;;;;9162391;19;20330;-72
2023/10/31 04:15:31;;;;;;;10.25;5.50;;;11.70;90.00;;;;;;9164137;19;20495;-73
2023/10/31 04:18:39;;;;;;;9.50;5.93;;;11.70;89.80;;;;;;9161758;19;20026;-73
2023/10/31 04:21:44;;;;;;;10.82;5.97;;;11.70;90.10;;;;;;9162208;19;20015;-73
2023/10/31 04:24:52;;;;;;;14.60;6.50;;;11.80;91.00;;;;;;9162330;19;20022;-73
2023/10/31 04:28:00;;;;;;;11.95;6.15;;;11.80;90.60;;;;;;9163023;19;20460;-73
2023/10/31 04:31:08;;;;;;;13.90;6.05;;;11.80;90.50;;;;;;9158376;19;20034;-73
2023/10/31 04:34:14;;;;;;;11.35;7.25;;;11.70;88.90;;;;;;9161150;19;20346;-73
2023/10/31 04:37:23;;;;;;;10.70;6.43;;;11.70;89.00;;;;;;9161799;19;20014;-72
2023/10/31 04:40:31;;;;;;;9.70;5.78;;;11.70;89.20;;;;;;9163178;19;20047;-73
2023/10/31 04:43:41;;;;;;;9.57;6.30;;;11.80;89.30;;;;;;9162708;19;20811;-73
2023/10/31 04:46:47;;;;;;;9.40;6.32;;;11.70;89.30;;;;;;9162532;19;21668;-74
2023/10/31 04:49:54;;;;;;;10.82;5.78;;;11.70;89.80;;;;;;9158764;19;20020;-73
2023/10/31 04:53:01;;;;;;;10.07;6.00;;;11.00;88.40;;;;;;9161741;19;20019;-74
2023/10/31 04:56:15;;;;;;;12.68;6.20;;;11.70;88.80;;;;;;9171237;19;20014;-73
2023/10/31 04:59:23;;;;;;;12.05;5.90;;;11.70;88.90;;;;;;9172433;19;20014;-73
2023/10/31 05:02:31;;;;;;;12.40;5.80;;;11.70;89.00;;;;;;9168096;19;20014;-74
2023/10/31 05:05:36;;;;;;;8.98;5.78;;;11.70;88.80;;;;;;9169999;19;20048;-74
2023/10/31 05:08:44;;;;;;;10.85;5.75;;;11.70;88.90;;;;;;9168376;19;20110;-74
2023/10/31 05:11:51;;;;;;;10.02;5.80;;;11.70;89.10;;;;;;9169113;19;20635;-72
2023/10/31 05:15:02;;;;;;;11.10;5.63;;;11.70;88.90;;;;;;9169766;19;20015;-73
2023/10/31 05:18:08;;;;;;;8.95;5.07;;;11.70;88.80;;;;;;9170144;19;20021;-73
2023/10/31 05:21:15;;;;;;;10.98;6.25;;;11.60;88.80;;;;;;9170980;19;20014;-73
2023/10/31 05:24:20;;;;;;;12.57;5.60;;;11.70;89.10;;;;;;9169540;19;20388;-74
2023/10/31 05:27:28;;;;;;;10.10;5.78;;;11.70;89.00;;;;;;9169809;19;20898;-73
2023/10/31 05:30:40;;;;;;;8.25;4.95;;;11.60;88.90;;;;;;9162890;19;20015;-73
2023/10/31 05:33:48;;;;;;;11.00;5.15;;;11.60;88.80;;;;;;9166824;19;20014;-73
2023/10/31 05:36:53;;;;;;;8.07;4.63;;;11.70;89.00;;;;;;9168020;19;20018;-73
2023/10/31 05:40:01;;;;;;;9.57;5.10;;;11.60;88.90;;;;;;9169764;19;20016;-73
2023/10/31 05:43:06;;;;;;;8.75;5.15;;;11.60;89.30;;;;;;9168402;19;20014;-73
2023/10/31 05:46:16;;;;;;;8.10;4.80;;;11.60;89.00;;;;;;9169511;19;20018;-73
2023/10/31 05:49:22;;;;;;;13.73;4.97;;;11.60;89.10;;;;;;9163403;19;20845;-73
2023/10/31 05:52:31;;;;;;;8.30;5.10;;;11.50;89.10;;;;;;9169481;19;20464;-73
2023/10/31 05:55:40;;;;;;;8.43;4.57;;;11.60;89.10;;;;;;9167391;19;20015;-73
2023/10/31 05:58:50;;;;;;;7.38;4.82;;;11.60;89.10;;;;;;9167644;19;20710;-75
2023/10/31 06:02:00;;;;;;;6.82;4.53;;;11.50;89.20;;;;;;9166914;19;20070;-73
2023/10/31 06:05:09;;;;;;;8.48;5.03;;;11.60;89.50;;;;;;9165438;19;20022;-74
2023/10/31 06:08:15;;;;;;;6.40;3.90;;;11.60;89.80;;;;;;9168223;19;20029;-74
2023/10/31 06:11:23;;;;;;;9.30;4.55;;;11.60;89.90;;;;;;9166230;19;20007;-74
2023/10/31 06:14:31;;;;;;;5.32;3.63;;;11.60;89.90;;;;;;9167559;19;20014;-73
2023/10/31 06:17:42;;;;;;;8.98;3.60;;;11.60;90.30;;;;;;9165179;19;20014;-73
2023/10/31 06:20:47;;;;;;;6.25;3.10;;;11.60;90.40;;;;;;9168602;19;20025;-74
2023/10/31 06:23:55;;;;;;;5.85;3.05;;;11.60;90.30;;;;;;9168268;19;20011;-76
2023/10/31 06:27:03;;;;;;;7.65;3.47;;;11.60;90.80;;;;;;9165108;19;20014;-72
2023/10/31 06:30:15;;;;;;;3.90;2.77;;;11.60;90.90;;;;;;9162366;19;20037;-73
2023/10/31 06:33:35;;;;;;;7.05;3.60;;;11.70;91.10;;;;;;9168195;19;20038;-73
2023/10/31 06:36:42;;;;;;;6.43;3.55;;;11.60;91.40;;;;;;9169391;19;20010;-73
2023/10/31 06:39:48;;;;;;;5.25;2.40;;;11.60;91.30;;;;;;9166922;19;20106;-73
2023/10/31 06:42:55;;;;;;;3.22;2.20;;;11.60;91.90;;;;;;9163647;19;20034;-73
2023/10/31 06:46:04;;;;;;;4.30;2.72;;;11.60;92.00;;;;;;9162827;19;20123;-72
2023/10/31 06:49:15;;;;;;;3.92;2.28;;;11.60;93.10;;;;;;9161225;19;20613;-73
2023/10/31 06:52:20;;;;;;;3.15;2.17;;;11.60;92.90;;;;;;9163514;19;20394;-73
2023/10/31 06:55:27;;;;;;;7.60;2.10;;;11.50;90.20;;;;;;9162678;19;20021;-75
2023/10/31 06:58:33;;;;;;;5.68;2.42;;;11.50;90.30;;;;;;9166751;19;20019;-72
2023/10/31 07:01:40;;;;;;;4.30;2.30;;;11.60;90.60;;;;;;9165199;19;20025;-73
2023/10/31 07:04:49;;;;;;;3.78;2.00;;;11.40;91.00;;;;;;9164178;19;20022;-72
2023/10/31 07:07:56;;;;;;;6.15;2.10;;;11.50;91.10;;;;;;9163192;19;20025;-76
2023/10/31 07:11:02;;;;;;;4.57;1.80;;;11.50;91.60;;;;;;9163189;19;20014;-73
2023/10/31 07:14:09;;;;;;;3.72;1.73;;;11.50;93.30;;;;;;9167176;19;20033;-72
2023/10/31 07:17:15;;;;;;;4.25;2.10;;;11.50;90.50;;;;;;9163024;19;20453;-72
2023/10/31 07:20:25;;;;;;;4.03;1.75;;;11.40;89.10;;;;;;9160847;19;20018;-72
2023/10/31 07:23:31;;;;;;;3.08;1.77;;;11.40;89.00;;;;;;9160623;19;20422;-72
2023/10/31 07:26:40;;;;;;;5.70;2.03;;;11.40;89.10;;;;;;9161188;19;20026;-71
2023/10/31 07:29:46;;;;;;;4.50;1.60;;;11.40;89.00;;;;;;9156372;19;20018;-72
2023/10/31 07:32:53;;;;;;;6.68;1.75;;;11.40;89.10;;;;;;9159743;19;20648;-71
2023/10/31 07:36:02;;;;;;;6.85;1.92;;;11.40;89.10;;;;;;9161874;19;20103;-71
2023/10/31 07:39:09;;;;;;;7.85;2.58;;;11.40;89.20;;;;;;9161839;19;20132;-71
2023/10/31 07:42:15;;;;;;;2.88;1.48;;;11.40;89.40;;;;;;9163087;19;20010;-73
2023/10/31 07:45:23;;;;;;;2.92;1.60;;;11.40;89.50;;;;;;9161924;19;20010;-72
2023/10/31 07:48:29;;;;;;;2.10;1.70;;;11.40;90.00;;;;;;9163279;19;20022;-72
2023/10/31 07:51:39;;;;;;;9.60;1.80;;;11.40;89.80;;;;;;9159816;19;20044;-72
2023/10/31 07:54:44;;;;;;;5.28;1.73;;;11.50;90.50;;;;;;9162139;19;20200;-72
2023/10/31 07:57:53;;;;;;;5.63;1.77;;;11.60;93.30;;;;;;9162367;19;20022;-72
2023/10/31 08:01:01;;;;;;;2.80;1.55;;;11.60;90.90;;;;;;9160532;19;20026;-72
2023/10/31 08:04:09;;;;;;;2.50;1.58;;;11.50;89.60;;;;;;9162862;19;20014;-72
2023/10/31 08:07:18;;;;;;;2.05;1.65;;;11.50;89.50;;;;;;9163360;19;20022;-71
2023/10/31 08:10:26;;;;;;;3.22;1.95;;;11.50;89.40;;;;;;9163216;19;20015;-71
2023/10/31 08:13:32;;;;;;;6.47;1.83;;;11.50;89.40;;;;;;9163093;19;20400;-72
2023/10/31 08:16:40;;;;;;;4.55;2.53;;;11.40;89.40;;;;;;9164196;19;20097;-71
2023/10/31 08:19:46;;;;;;;5.65;2.17;;;11.50;89.50;;;;;;9160753;19;20044;-71
2023/10/31 08:22:56;;;;;;;5.28;2.38;;;11.50;89.70;;;;;;9162692;19;20018;-71
2023/10/31 08:26:02;;;;;;;6.95;1.90;;;11.50;89.90;;;;;;9161453;19;20010;-71
2023/10/31 08:29:10;;;;;;;4.13;2.10;;;11.50;90.00;;;;;;9162511;19;20029;-72
2023/10/31 08:32:16;;;;;;;5.63;2.33;;;11.60;90.00;;;;;;9154895;19;20033;-71
2023/10/31 08:35:23;;;;;;;3.53;2.17;;;11.60;90.20;;;;;;9162864;19;20014;-72
2023/10/31 08:38:31;;;;;;;6.00;2.30;;;11.60;90.60;;;;;;9161358;19;20021;-73
2023/10/31 08:41:52;;;;;;;9.18;2.72;;;11.60;89.50;;;;;;9158832;19;20367;-72
2023/10/31 08:44:58;;;;;;;4.90;2.53;;;11.70;89.60;;;;;;9161442;19;20019;-72
2023/10/31 08:48:06;;;;;;;5.70;2.45;;;11.70;89.60;;;;;;9159732;19;20026;-72
2023/10/31 08:51:11;;;;;;;6.45;2.90;;;11.70;89.70;;;;;;9159961;19;20018;-71
2023/10/31 08:54:22;;;;;;;7.68;2.63;;;11.70;89.60;;;;;;9160550;19;20033;-71
2023/10/31 08:57:27;;;;;;;4.63;2.95;;;11.80;90.80;;;;;;9161903;19;20586;-71
2023/10/31 09:00:34;;;;;;;10.73;3.20;;;12.00;91.30;;;;;;9159379;19;20370;-71
2023/10/31 09:03:40;;;;;;;7.93;2.85;;;11.90;90.60;;;;;;9154270;19;20014;-71
2023/10/31 09:06:48;;;;;;;4.07;3.10;;;11.80;89.60;;;;;;9157039;19;20021;-71
2023/10/31 09:09:56;;;;;;;4.78;2.75;;;11.90;89.90;;;;;;9157972;19;20018;-72
2023/10/31 09:13:03;;;;;;;9.00;3.58;;;11.90;89.70;;;;;;9154642;19;20015;-72
2023/10/31 09:16:10;;;;;;;6.18;3.35;;;11.90;89.70;;;;;;9155815;19;20027;-72
2023/10/31 09:19:17;;;;;;;5.80;3.00;;;12.00;89.70;;;;;;9159384;19;20046;-72
2023/10/31 09:22:23;;;;;;;6.28;3.45;;;12.00;90.00;;;;;;9158861;19;20450;-71
2023/10/31 09:25:33;;;;;;;10.23;3.92;;;12.00;90.30;;;;;;9154047;19;20049;-72
2023/10/31 09:28:40;;;;;;;5.35;3.35;;;12.20;90.60;;;;;;9158308;19;20021;-72
2023/10/31 09:31:47;;;;;;;6.72;3.72;;;12.20;90.10;;;;;;9151838;19;20022;-72
2023/10/31 09:34:53;;;;;;;8.30;3.40;;;12.20;90.10;;;;;;9157327;19;20468;-73
2023/10/31 09:38:00;;;;;;;5.50;3.47;;;12.30;90.60;;;;;;9157302;19;20022;-72
2023/10/31 09:41:09;;;;;;;4.78;2.90;;;12.40;91.60;;;;;;9159352;19;20026;-72
2023/10/31 09:44:16;;;;;;;11.23;3.60;;;12.40;90.30;;;;;;9167113;19;20006;-72
2023/10/31 09:47:23;;;;;;;6.38;3.58;;;12.40;90.70;;;;;;9165145;19;20015;-71
2023/10/31 09:50:32;;;;;;;8.02;3.20;;;12.40;90.00;;;;;;9166148;19;20410;-72
2023/10/31 09:53:41;;;;;;;5.30;3.42;;;12.50;90.00;;;;;;9163250;19;20086;-72
2023/10/31 09:56:51;;;;;;;7.97;3.20;;;12.50;89.90;;;;;;9165947;19;20022;-72
2023/10/31 09:59:56;;;;;;;6.07;2.80;;;12.60;89.90;;;;;;9164159;19;20048;-72
2023/10/31 10:03:04;;;;;;;4.05;3.05;;;12.60;89.90;;;;;;9161649;19;20010;-72
2023/10/31 10:06:10;;;;;;;6.28;3.03;;;12.70;90.10;;;;;;9161712;19;20011;-72
2023/10/31 10:09:17;;;;;;;7.53;2.95;;;12.80;90.00;;;;;;9164053;19;20034;-72
2023/10/31 10:12:26;;;;;;;6.28;3.20;;;12.90;90.00;;;;;;9164039;19;20021;-73
2023/10/31 10:15:45;;;;;;;3.30;1.75;;;13.00;90.00;;;;;;9165473;19;20420;-72
2023/10/31 10:18:50;;;;;;;5.35;2.38;;;13.20;90.00;;;;;;9164496;19;20376;-72
2023/10/31 10:21:59;;;;;;;5.10;2.05;;;13.20;90.00;;;;;;9165267;19;20381;-71
2023/10/31 10:25:06;;;;;;;2.85;1.83;;;13.30;89.90;;;;;;9164217;19;20404;-71
2023/10/31 10:28:16;;;;;;;4.53;1.88;;;13.40;89.90;;;;;;9163666;19;20021;-71
2023/10/31 10:31:21;;;;;;;5.60;2.20;;;13.60;89.90;;;;;;9159155;19;20544;-71
2023/10/31 10:34:29;;;;;;;5.85;2.10;;;13.70;90.00;;;;;;9163737;19;20026;-71
2023/10/31 10:37:34;;;;;;;6.82;1.83;;;13.80;89.80;;;;;;9163001;19;20022;-71
2023/10/31 10:40:44;;;;;;;3.10;1.65;;;13.90;90.10;;;;;;9164799;19;20388;-71
2023/10/31 10:43:57;;;;;;;8.20;1.58;;;14.00;89.40;;;;;;9163030;19;20015;-71
2023/10/31 10:47:09;;;;;;;8.00;1.42;;;14.10;89.20;;;;;;9162294;19;20467;-71
2023/10/31 10:50:15;;;;;;;3.92;1.70;;;14.20;89.00;;;;;;9164836;19;20057;-71
2023/10/31 10:53:27;;;;;;;4.30;1.40;;;14.20;89.60;;;;;;9159872;19;20021;-71
2023/10/31 10:56:40;;;;;;;3.85;1.60;;;14.30;88.80;;;;;;9162065;19;20010;-71
2023/10/31 10:59:54;;;;;;;5.80;1.40;;;14.40;88.70;;;;;;9161896;19;20007;-72
2023/10/31 11:02:59;;;;;;;4.15;1.30;;;14.40;88.50;;;;;;9164040;19;20091;-72
2023/10/31 11:06:08;;;;;;;5.25;1.20;;;14.50;88.40;;;;;;9161204;19;20026;-70
2023/10/31 11:09:15;;;;;;;5.28;0.98;;;14.50;88.20;;;;;;9161601;19;20064;-72
2023/10/31 11:12:24;;;;;;;3.20;1.08;;;14.50;88.10;;;;;;9163267;19;20475;-71
2023/10/31 11:15:33;;;;;;;5.00;1.13;;;14.50;88.10;;;;;;9163609;19;20029;-71
2023/10/31 11:18:41;;;;;;;2.92;1.00;;;14.50;88.00;;;;;;9162746;19;20022;-72
2023/10/31 11:21:57;;;;;;;2.92;1.25;;;14.50;87.80;;;;;;9162964;19;20464;-72
2023/10/31 11:25:04;;;;;;;5.13;2.08;;;14.50;87.70;;;;;;9161828;19;20010;-72
2023/10/31 11:28:15;;;;;;;4.07;0.95;;;14.50;87.90;;;;;;9163581;19;20022;-72
2023/10/31 11:31:25;;;;;;;5.10;1.20;;;14.50;87.70;;;;;;9158914;19;20022;-72
2023/10/31 11:34:32;;;;;;;5.40;0.85;;;14.60;87.70;;;;;;9162242;19;20077;-72
2023/10/31 11:37:40;;;;;;;5.15;0.95;;;14.60;87.60;;;;;;9164178;19;20034;-72
2023/10/31 11:41:02;;;;;;;6.53;1.20;;;14.60;87.60;;;;;;9163939;19;20609;-72
2023/10/31 11:44:11;;;;;;;2.10;0.65;;;14.60;87.40;;;;;;9162186;19;20021;-71
2023/10/31 11:47:21;;;;;;;7.43;1.15;;;14.60;87.60;;;;;;9163129;19;20022;-70
2023/10/31 11:50:28;;;;;;;4.63;0.80;;;14.70;87.50;;;;;;9164251;19;20891;-70
2023/10/31 11:53:34;;;;;;;6.00;1.10;;;14.70;87.40;;;;;;9161811;19;20089;-70
2023/10/31 11:56:41;;;;;;;5.20;0.80;;;14.80;87.50;;;;;;9161735;19;20679;-70
2023/10/31 11:59:47;;;;;;;6.60;1.00;;;14.80;87.40;;;;;;9161478;19;20018;-70
2023/10/31 12:03:04;;;;;;;6.05;1.08;;;14.70;87.10;;;;;;9159448;19;20501;-70
2023/10/31 12:06:11;;;;;;;8.52;1.30;;;15.20;87.10;;;;;;9158539;19;20041;-69
2023/10/31 12:09:18;;;;;;;7.75;0.85;;;14.80;86.90;;;;;;9160715;19;20014;-70
2023/10/31 12:12:33;;;;;;;8.05;0.88;;;14.80;86.80;;;;;;9159174;19;20014;-72
2023/10/31 12:15:53;;;;;;;5.53;1.20;;;14.80;86.60;;;;;;9161591;19;20014;-69
2023/10/31 12:19:02;;;;;;;3.17;0.70;;;14.80;86.70;;;;;;9161467;19;20020;-70
2023/10/31 12:22:16;;;;;;;4.82;0.82;;;14.80;86.60;;;;;;9161879;19;20021;-71
2023/10/31 12:25:21;;;;;;;3.63;1.05;;;14.70;86.50;;;;;;9161807;19;20478;-69
2023/10/31 12:28:29;;;;;;;9.15;1.05;;;14.70;86.50;;;;;;9161795;19;20015;-69
2023/10/31 12:31:35;;;;;;;5.07;1.25;;;14.70;86.50;;;;;;9157206;19;20022;-70
2023/10/31 12:34:46;;;;;;;4.95;0.88;;;14.70;86.50;;;;;;9159621;19;20014;-70
2023/10/31 12:37:53;;;;;;;4.63;0.98;;;14.70;86.70;;;;;;9161268;19;20472;-70
2023/10/31 12:41:00;;;;;;;3.65;0.80;;;14.70;86.50;;;;;;9161496;19;20018;-69
2023/10/31 12:44:08;;;;;;;3.15;0.90;;;14.70;86.70;;;;;;9161103;19;20018;-71
2023/10/31 12:47:24;;;;;;;3.95;0.68;;;14.70;86.80;;;;;;9159139;19;20021;-70
2023/10/31 12:50:32;;;;;;;11.65;1.50;;;14.80;87.00;;;;;;9160617;19;20353;-70
2023/10/31 12:53:40;;;;;;;4.63;1.35;;;14.80;87.50;;;;;;9161128;19;20029;-70
2023/10/31 12:56:45;;;;;;;5.90;0.77;;;14.80;88.50;;;;;;9162100;19;20051;-70
2023/10/31 12:59:58;;;;;;;6.68;1.00;;;14.90;91.60;;;;;;9159088;19;20436;-70
2023/10/31 13:03:05;;;;;;;2.65;0.60;;;14.90;92.40;;;;;;9161901;19;20503;-69
2023/10/31 13:06:20;;;;;;;1.42;0.60;;;14.90;90.70;;;;;;9161855;19;20022;-69
2023/10/31 13:09:25;;;;;;;3.80;0.80;;;14.90;90.50;;;;;;9163586;19;20451;-70
2023/10/31 13:12:33;;;;;;;6.60;1.13;;;14.90;90.50;;;;;;9159558;19;20018;-70
2023/10/31 13:15:38;;;;;;;3.17;0.70;;;14.90;90.40;;;;;;9160263;19;20022;-69
2023/10/31 13:18:46;;;;;;;4.85;0.90;;;14.90;90.70;;;;;;9167846;19;20026;-70
2023/10/31 13:21:54;;;;;;;1.65;0.80;;;14.90;91.20;;;;;;9166504;19;20018;-70
2023/10/31 13:25:01;;;;;;;2.15;0.77;;;14.80;90.70;;;;;;9165948;19;20434;-74
2023/10/31 13:28:09;;;;;;;3.38;0.85;;;14.70;90.70;;;;;;9170602;19;20360;-71
2023/10/31 13:31:17;;;;;;;1.27;0.57;;;14.70;90.70;;;;;;9166034;19;20007;-72
2023/10/31 13:34:23;;;;;;;3.90;0.70;;;14.70;90.90;;;;;;9169025;19;20053;-71
2023/10/31 13:37:34;;;;;;;3.03;0.63;;;14.60;90.50;;;;;;9168648;19;20019;-72
2023/10/31 13:40:40;;;;;;;3.88;1.55;;;14.70;91.60;;;;;;9170280;19;20094;-71
2023/10/31 13:43:48;;;;;;;3.53;0.93;;;14.60;90.70;;;;;;9169833;19;20018;-71
2023/10/31 13:46:53;;;;;;;2.97;1.00;;;14.60;92.30;;;;;;9169871;19;20017;-71
2023/10/31 13:50:01;;;;;;;4.88;1.17;;;14.90;86.80;;;;;;9168265;19;20018;-71
2023/10/31 13:53:09;;;;;;;6.75;1.88;;;14.40;85.50;;;;;;9168187;19;20019;-70
2023/10/31 13:56:19;;;;;;;4.05;1.02;;;14.40;85.50;;;;;;9163863;19;20026;-71
2023/10/31 13:59:25;;;;;;;8.48;2.08;;;14.40;85.60;;;;;;9168810;19;20025;-72
2023/10/31 14:02:32;;;;;;;2.95;0.82;;;14.40;85.70;;;;;;9169034;19;20976;-71
2023/10/31 14:05:41;;;;;;;6.82;1.15;;;14.30;85.80;;;;;;9168084;19;20018;-72
2023/10/31 14:08:52;;;;;;;8.07;1.10;;;14.40;86.40;;;;;;9167285;19;20021;-71
2023/10/31 14:11:57;;;;;;;4.97;0.90;;;14.40;86.90;;;;;;9166873;19;20022;-71
2023/10/31 14:15:05;;;;;;;3.38;1.02;;;14.40;85.80;;;;;;9163050;19;20019;-71
2023/10/31 14:18:10;;;;;;;3.53;1.13;;;14.40;85.80;;;;;;9166333;19;20113;-74
2023/10/31 14:21:19;;;;;;;3.50;0.80;;;14.40;85.80;;;;;;9164400;19;20094;-71
2023/10/31 14:24:26;;;;;;;4.00;0.93;;;14.40;85.90;;;;;;9164222;19;20051;-72
2023/10/31 14:27:34;;;;;;;2.83;0.68;;;14.40;85.80;;;;;;9161590;19;20018;-70
2023/10/31 14:30:39;;;;;;;1.90;0.98;;;14.40;85.80;;;;;;9159772;19;20118;-70
2023/10/31 14:33:47;;;;;;;2.92;1.15;;;14.40;85.90;;;;;;9164102;19;20019;-70
2023/10/31 14:36:53;;;;;;;1.27;0.80;;;14.40;86.80;;;;;;9164200;19;20022;-71
2023/10/31 14:40:03;;;;;;;1.92;0.70;;;14.30;85.40;;;;;;9162522;19;20010;-72
2023/10/31 14:43:09;;;;;;;1.83;0.68;;;14.30;85.40;;;;;;9164518;19;20479;-71
2023/10/31 14:46:16;;;;;;;1.23;0.60;;;14.30;85.40;;;;;;9162143;19;20015;-71
2023/10/31 14:49:22;;;;;;;3.17;1.00;;;14.20;85.40;;;;;;9160927;19;20483;-71
2023/10/31 14:52:29;;;;;;;5.00;0.95;;;14.20;85.40;;;;;;9163080;19;20010;-71
2023/10/31 14:55:37;;;;;;;2.58;0.70;;;14.10;85.40;;;;;;9162787;19;20025;-71
2023/10/31 14:58:44;;;;;;;2.25;0.90;;;14.10;85.30;;;;;;9162711;19;20058;-70
2023/10/31 15:01:49;;;;;;;4.95;1.00;;;14.10;85.40;;;;;;9162320;19;20010;-73
2023/10/31 15:04:57;;;;;;;4.97;0.70;;;14.00;85.50;;;;;;9163756;19;20797;-70
2023/10/31 15:08:02;;;;;;;2.95;0.95;;;14.00;85.50;;;;;;9160152;19;20014;-70
2023/10/31 15:11:12;;;;;;;1.85;1.08;;;14.00;85.50;;;;;;9159899;19;20010;-71
2023/10/31 15:14:18;;;;;;;2.83;1.45;;;14.00;85.60;;;;;;9159027;19;20018;-70
2023/10/31 15:17:25;;;;;;;3.30;1.05;;;14.00;85.70;;;;;;9159041;19;20014;-72
2023/10/31 15:20:30;;;;;;;2.97;0.88;;;14.00;86.00;;;;;;9160658;19;20051;-72
2023/10/31 15:23:38;;;;;;;5.00;1.40;;;14.00;90.00;;;;;;9160646;19;20010;-71
2023/10/31 15:26:46;;;;;;;3.45;1.00;;;14.10;88.30;;;;;;9159950;19;20023;-70
2023/10/31 15:29:53;;;;;;;3.08;0.88;;;13.70;86.60;;;;;;9155243;19;20011;-71
2023/10/31 15:33:00;;;;;;;2.13;0.98;;;14.00;87.40;;;;;;9159711;19;20051;-71
2023/10/31 15:36:13;;;;;;;2.67;0.70;;;13.90;87.50;;;;;;9157781;19;20709;-72
2023/10/31 15:39:19;;;;;;;2.17;0.93;;;13.90;87.70;;;;;;9156041;19;20033;-71
2023/10/31 15:42:29;;;;;;;5.18;1.48;;;13.90;88.70;;;;;;9159011;19;20026;-71
2023/10/31 15:45:39;;;;;;;1.92;0.75;;;13.90;86.10;;;;;;9158475;19;20429;-71
2023/10/31 15:48:48;;;;;;;4.82;0.98;;;13.70;85.90;;;;;;9158487;19;20033;-71
2023/10/31 15:51:53;;;;;;;2.92;1.25;;;13.70;86.10;;;;;;9158681;19;20022;-70
2023/10/31 15:55:00;;;;;;;1.50;0.73;;;13.70;86.10;;;;;;9158322;19;20463;-70
2023/10/31 15:58:09;;;;;;;2.05;0.80;;;13.70;86.10;;;;;;9156685;19;20404;-70
2023/10/31 16:01:16;;;;;;;7.32;1.13;;;13.60;86.20;;;;;;9153994;19;20006;-71
2023/10/31 16:04:23;;;;;;;2.08;1.00;;;13.60;86.40;;;;;;9158258;19;20528;-71
2023/10/31 16:07:31;;;;;;;4.82;1.30;;;13.70;86.80;;;;;;9154522;19;20050;-71
2023/10/31 16:10:36;;;;;;;2.97;1.15;;;13.70;87.30;;;;;;9155302;19;20022;-73
2023/10/31 16:13:46;;;;;;;4.35;1.20;;;13.60;87.00;;;;;;9158661;19;20018;-73